createdAt,value
2019-01-19T00:01:52.822Z,90.54
2019-01-19T00:04:55.730Z,90.45
2019-01-19T00:07:47.817Z,90.47
2019-01-19T00:10:54.607Z,90.46
2019-01-19T00:14:03.834Z,90.21
2019-01-19T00:17:19.151Z,90.51
2019-01-19T00:20:06.795Z,90.51
2019-01-19T00:23:15.641Z,90.88
2019-01-19T00:26:13.661Z,90.73
2019-01-19T00:28:53.894Z,90.76
2019-01-19T00:31:47.294Z,90.11
2019-01-19T00:34:58.100Z,90.12
2019-01-19T00:37:42.745Z,89.83
2019-01-19T00:41:06.360Z,89.72
2019-01-19T00:44:04.132Z,90.02
2019-01-19T00:46:56.806Z,89.86
2019-01-19T00:49:40.387Z,89.81
2019-01-19T00:52:45.887Z,90.04
2019-01-19T00:55:42.343Z,89.55
2019-01-19T00:58:35.318Z,89.88
2019-01-19T01:01:32.693Z,89.76
2019-01-19T01:04:45.930Z,89.23
2019-01-19T01:07:39.145Z,89.66
2019-01-19T01:10:50.063Z,89.24
2019-01-19T01:13:42.834Z,89.71
2019-01-19T01:16:54.368Z,89.70
2019-01-19T01:20:12.306Z,89.77
2019-01-19T01:23:20.870Z,89.38
2019-01-19T01:26:35.800Z,89.36
2019-01-19T01:29:44.568Z,88.77
2019-01-19T01:33:06.798Z,88.58
2019-01-19T01:36:15.501Z,88.48
2019-01-19T01:39:12.026Z,88.56
2019-01-19T01:42:27.086Z,88.76
2019-01-19T01:45:40.736Z,88.64
2019-01-19T01:48:46.679Z,88.78
2019-01-19T01:51:56.251Z,88.57
2019-01-19T01:54:59.029Z,88.43
2019-01-19T01:57:55.569Z,88.66
2019-01-19T02:00:30.751Z,88.66
2019-01-19T02:03:25.247Z,88.23
2019-01-19T02:06:11.340Z,88.60
2019-01-19T02:09:31.117Z,88.25
2019-01-19T02:12:30.214Z,88.29
2019-01-19T02:15:35.966Z,88.62
2019-01-19T02:18:22.461Z,88.01
2019-01-19T02:21:04.086Z,87.89
2019-01-19T02:24:11.946Z,87.85
2019-01-19T02:27:19.141Z,87.79
2019-01-19T02:30:23.236Z,88.36
2019-01-19T02:33:16.839Z,87.96
2019-01-19T02:36:25.977Z,87.59
2019-01-19T02:39:21.127Z,87.76
2019-01-19T02:43:04.267Z,87.73
2019-01-19T02:45:56.268Z,88.29
2019-01-19T02:48:55.947Z,87.92
2019-01-19T02:51:47.297Z,87.95
2019-01-19T02:54:42.377Z,88.03
2019-01-19T02:57:48.419Z,87.91
2019-01-19T03:00:40.964Z,88.04
2019-01-19T03:03:46.759Z,88.96
2019-01-19T03:06:33.167Z,89.01
2019-01-19T03:09:17.766Z,88.80
2019-01-19T03:12:19.082Z,89.12
2019-01-19T03:15:22.303Z,89.83
2019-01-19T03:18:17.663Z,88.14
2019-01-19T03:21:22.387Z,89.11
2019-01-19T03:24:38.409Z,88.25
2019-01-19T03:27:50.379Z,88.01
2019-01-19T03:30:53.051Z,88.20
2019-01-19T03:33:41.045Z,88.37
2019-01-19T03:36:36.160Z,88.49
2019-01-19T03:39:41.500Z,87.61
2019-01-19T03:42:30.966Z,87.77
2019-01-19T03:45:25.389Z,87.38
2019-01-19T03:48:33.406Z,87.54
2019-01-19T03:51:26.692Z,87.36
2019-01-19T03:54:28.337Z,87.18
2019-01-19T04:01:34.848Z,88.17
2019-01-19T04:04:49.371Z,88.13
2019-01-19T04:07:30.816Z,87.52
2019-01-19T04:10:28.475Z,87.78
2019-01-19T04:13:09.531Z,87.60
2019-01-19T04:16:15.412Z,87.62
2019-01-19T04:19:03.585Z,87.59
2019-01-19T04:21:40.142Z,87.80
2019-01-19T04:24:17.026Z,87.76
2019-01-19T04:26:48.473Z,87.37
2019-01-19T04:29:17.397Z,87.20
2019-01-19T04:31:46.171Z,87.02
2019-01-19T04:34:15.368Z,87.30
2019-01-19T04:36:44.707Z,87.67
2019-01-19T04:39:13.577Z,87.03
2019-01-19T04:41:42.682Z,86.70
2019-01-19T04:44:11.701Z,86.46
2019-01-19T04:46:40.524Z,87.30
2019-01-19T04:49:10.288Z,87.15
2019-01-19T04:51:39.444Z,86.61
2019-01-19T04:54:08.323Z,86.48
2019-01-19T04:56:37.709Z,86.48
2019-01-19T04:59:06.772Z,86.30
2019-01-19T05:01:35.575Z,86.18
2019-01-19T05:04:04.530Z,86.48
2019-01-19T05:06:33.339Z,86.81
2019-01-19T05:09:02.182Z,86.66
2019-01-19T05:11:31.332Z,86.49
2019-01-19T05:14:00.246Z,86.67
2019-01-19T05:16:29.003Z,86.91
2019-01-19T05:18:58.100Z,86.93
2019-01-19T05:21:26.930Z,87.02
2019-01-19T05:23:56.349Z,86.88
2019-01-19T05:26:25.166Z,86.73
2019-01-19T05:28:53.964Z,86.38
2019-01-19T05:31:22.858Z,87.80
2019-01-19T05:33:51.794Z,88.15
2019-01-19T05:36:20.829Z,87.00
2019-01-19T05:38:49.651Z,86.75
2019-01-19T05:41:18.820Z,86.67
2019-01-19T05:43:47.640Z,86.70
2019-01-19T05:46:21.361Z,86.93
2019-01-19T05:48:47.641Z,87.00
2019-01-19T05:51:16.693Z,87.01
2019-01-19T05:53:45.569Z,86.63
2019-01-19T05:56:14.352Z,85.97
2019-01-19T05:58:43.320Z,86.17
2019-01-19T06:01:12.294Z,85.98
2019-01-19T06:03:41.112Z,86.07
2019-01-19T06:06:10.273Z,86.17
2019-01-19T06:08:39.109Z,86.35
2019-01-19T06:11:08.018Z,86.16
2019-01-19T06:13:36.914Z,86.77
2019-01-19T06:16:05.888Z,86.42
2019-01-19T06:18:36.213Z,86.58
2019-01-19T06:21:06.974Z,86.61
2019-01-19T06:23:35.831Z,86.45
2019-01-19T06:26:04.741Z,85.78
2019-01-19T06:28:33.533Z,85.87
2019-01-19T06:31:02.665Z,85.99
2019-01-19T06:33:31.469Z,86.39
2019-01-19T06:36:00.366Z,86.47
2019-01-19T06:38:29.167Z,85.64
2019-01-19T06:40:57.938Z,85.78
2019-01-19T06:43:27.052Z,85.91
2019-01-19T06:45:55.857Z,85.76
2019-01-19T06:48:26.115Z,85.49
2019-01-19T06:50:55.035Z,85.70
2019-01-19T06:53:23.886Z,85.83
2019-01-19T06:55:52.993Z,86.11
2019-01-19T06:58:22.122Z,85.62
2019-01-19T07:00:50.975Z,85.57
2019-01-19T07:03:19.777Z,85.70
2019-01-19T07:05:49.108Z,85.64
2019-01-19T07:08:17.933Z,85.89
2019-01-19T07:10:47.120Z,85.91
2019-01-19T07:13:16.026Z,85.67
2019-01-19T07:15:45.131Z,85.68
2019-01-19T07:18:14.760Z,85.76
2019-01-19T07:20:43.856Z,86.04
2019-01-19T07:23:12.677Z,85.95
2019-01-19T07:25:41.474Z,86.21
2019-01-19T07:28:10.284Z,85.85
2019-01-19T07:30:39.378Z,85.39
2019-01-19T07:33:08.249Z,85.64
2019-01-19T07:35:37.499Z,85.81
2019-01-19T07:38:06.351Z,85.80
2019-01-19T07:40:35.454Z,85.44
2019-01-19T07:43:09.997Z,85.67
2019-01-19T07:45:38.876Z,86.20
2019-01-19T07:48:08.198Z,85.43
2019-01-19T07:50:37.276Z,85.49
2019-01-19T07:53:06.158Z,85.56
2019-01-19T07:55:35.249Z,86.18
2019-01-19T07:58:08.235Z,86.02
2019-01-19T08:00:37.362Z,86.47
2019-01-19T08:03:06.411Z,86.10
2019-01-19T08:05:35.371Z,86.22
2019-01-19T08:08:04.319Z,86.30
2019-01-19T08:10:33.787Z,86.50
2019-01-19T08:13:02.936Z,86.60
2019-01-19T08:15:32.495Z,86.74
2019-01-19T08:18:01.391Z,86.85
2019-01-19T08:20:30.349Z,86.80
2019-01-19T08:22:59.513Z,86.86
2019-01-19T08:25:28.740Z,87.10
2019-01-19T08:27:58.218Z,87.19
2019-01-19T08:30:28.963Z,86.90
2019-01-19T08:32:57.949Z,86.89
2019-01-19T08:35:26.949Z,87.51
2019-01-19T08:37:55.994Z,87.50
2019-01-19T08:40:27.345Z,87.69
2019-01-19T08:43:01.737Z,88.06
2019-01-19T08:45:30.727Z,88.23
2019-01-19T08:48:02.551Z,88.39
2019-01-19T08:50:34.273Z,88.51
2019-01-19T08:53:04.534Z,88.57
2019-01-19T08:55:33.648Z,88.41
2019-01-19T08:58:02.453Z,88.55
2019-01-19T09:00:31.464Z,88.63
2019-01-19T09:03:00.444Z,89.21
2019-01-19T09:05:29.978Z,89.41
2019-01-19T09:07:59.070Z,89.85
2019-01-19T09:10:28.172Z,89.91
2019-01-19T09:12:56.954Z,90.23
2019-01-19T09:15:26.128Z,90.33
2019-01-19T09:17:55.102Z,90.87
2019-01-19T09:20:23.891Z,90.71
2019-01-19T09:22:57.464Z,90.88
2019-01-19T09:25:29.946Z,90.82
2019-01-19T09:27:59.283Z,90.86
2019-01-19T09:30:28.344Z,91.00
2019-01-19T09:32:58.049Z,91.28
2019-01-19T09:35:27.106Z,91.32
2019-01-19T09:38:04.579Z,91.52
2019-01-19T09:40:40.804Z,91.66
2019-01-19T09:43:10.063Z,91.81
2019-01-19T09:45:48.193Z,91.98
2019-01-19T09:48:17.378Z,91.64
2019-01-19T09:50:46.804Z,91.70
2019-01-19T09:53:15.584Z,91.76
2019-01-19T09:55:44.392Z,91.77
2019-01-19T09:58:13.371Z,91.53
2019-01-19T10:00:45.791Z,91.66
2019-01-19T10:03:13.956Z,91.69
2019-01-19T10:05:42.809Z,91.27
2019-01-19T10:08:11.673Z,90.71
2019-01-19T10:10:40.872Z,90.85
2019-01-19T10:13:13.959Z,91.16
2019-01-19T10:15:42.936Z,91.18
2019-01-19T10:18:12.183Z,90.96
2019-01-19T10:20:41.353Z,90.51
2019-01-19T10:23:10.703Z,90.51
2019-01-19T10:25:39.720Z,90.65
2019-01-19T10:28:10.039Z,90.66
2019-01-19T10:30:39.724Z,90.56
2019-01-19T10:33:08.630Z,90.42
2019-01-19T10:35:37.543Z,89.98
2019-01-19T10:38:06.525Z,90.07
2019-01-19T10:40:35.574Z,90.20
2019-01-19T10:43:04.725Z,90.06
2019-01-19T10:45:33.569Z,89.73
2019-01-19T10:48:02.762Z,89.93
2019-01-19T10:50:31.795Z,89.87
2019-01-19T10:53:00.881Z,89.49
2019-01-19T10:55:30.875Z,89.39
2019-01-19T10:58:01.424Z,89.75
2019-01-19T11:00:30.907Z,89.76
2019-01-19T11:03:00.144Z,89.35
2019-01-19T11:05:29.756Z,89.11
2019-01-19T11:08:03.475Z,88.35
2019-01-19T11:10:31.340Z,88.85
2019-01-19T11:13:00.494Z,87.32
2019-01-19T11:15:29.411Z,87.86
2019-01-19T11:17:58.384Z,87.35
2019-01-19T11:20:28.964Z,87.04
2019-01-19T11:23:07.989Z,86.94
2019-01-19T11:25:36.871Z,86.53
2019-01-19T11:28:05.889Z,86.00
2019-01-19T11:30:34.970Z,84.36
2019-01-19T11:33:10.175Z,85.04
2019-01-19T11:35:39.045Z,85.27
2019-01-19T11:38:12.161Z,84.93
2019-01-19T11:40:39.510Z,84.00
2019-01-19T11:43:13.242Z,84.20
2019-01-19T11:45:42.468Z,83.14
2019-01-19T11:48:11.371Z,83.36
2019-01-19T11:50:40.262Z,82.84
2019-01-19T11:53:09.294Z,82.41
2019-01-19T11:55:38.159Z,81.29
2019-01-19T11:58:07.429Z,82.33
2019-01-19T12:00:38.315Z,81.21
2019-01-19T12:03:07.575Z,81.12
2019-01-19T12:05:37.145Z,80.48
2019-01-19T12:08:07.069Z,78.89
2019-01-19T12:10:36.051Z,79.28
2019-01-19T12:13:05.173Z,79.92
2019-01-19T12:15:34.041Z,79.37
2019-01-19T12:18:03.258Z,79.83
2019-01-19T12:20:37.827Z,79.63
2019-01-19T12:23:16.337Z,79.15
2019-01-19T12:25:45.089Z,77.68
2019-01-19T12:28:14.823Z,77.95
2019-01-19T12:30:45.047Z,76.30
2019-01-19T12:33:14.499Z,77.55
2019-01-19T12:35:43.641Z,76.23
2019-01-19T12:38:12.764Z,76.35
2019-01-19T12:40:41.832Z,76.20
2019-01-19T12:43:21.645Z,76.55
2019-01-19T12:45:58.758Z,78.03
2019-01-19T12:48:27.670Z,75.67
2019-01-19T12:50:56.872Z,74.68
2019-01-19T12:53:26.400Z,76.14
2019-01-19T12:55:55.360Z,74.77
2019-01-19T12:58:24.651Z,74.68
2019-01-19T13:00:53.850Z,71.62
2019-01-19T13:03:22.781Z,72.42
2019-01-19T13:06:18.735Z,73.17
2019-01-19T13:08:47.585Z,73.11
2019-01-19T13:11:26.635Z,72.54
2019-01-19T13:13:55.648Z,72.20
2019-01-19T13:17:08.158Z,71.58
2019-01-19T13:19:45.642Z,71.94
2019-01-19T13:23:05.106Z,71.00
2019-01-19T13:29:25.289Z,71.28
2019-01-19T13:32:09.864Z,70.59
2019-01-19T14:09:00.093Z,69.51
2019-01-19T14:12:25.590Z,70.23
2019-01-19T14:15:45.499Z,69.84
2019-01-19T14:18:58.685Z,70.92
2019-01-19T14:22:03.868Z,69.78
2019-01-19T14:24:58.157Z,70.32
2019-01-19T14:28:14.451Z,69.96
2019-01-19T14:31:22.334Z,71.95
2019-01-19T14:34:31.609Z,70.41
2019-01-19T14:37:50.790Z,70.16
2019-01-19T14:40:35.845Z,71.05
2019-01-19T14:43:43.769Z,71.31
2019-01-19T14:46:37.912Z,71.32
2019-01-19T14:50:07.448Z,71.76
2019-01-19T14:53:23.623Z,72.85
2019-01-19T14:56:20.026Z,72.14
2019-01-19T14:59:06.835Z,73.63
2019-01-19T15:02:16.029Z,75.28
2019-01-19T15:05:21.667Z,73.90
2019-01-19T15:08:20.440Z,76.04
2019-01-19T15:11:31.532Z,77.75
2019-01-19T15:14:39.809Z,76.60
2019-01-19T15:17:48.465Z,77.94
2019-01-19T15:20:49.399Z,77.85
2019-01-19T15:23:47.578Z,78.66
2019-01-19T15:26:57.051Z,79.37
2019-01-19T15:30:09.132Z,79.71
2019-01-19T15:33:30.145Z,80.74
2019-01-19T15:36:24.076Z,81.12
2019-01-19T15:39:37.285Z,81.16
2019-01-19T15:42:41.374Z,81.44
2019-01-19T15:45:46.450Z,81.89
2019-01-19T15:48:39.767Z,82.48
2019-01-19T15:51:58.732Z,82.47
2019-01-19T15:55:00.106Z,82.53
2019-01-19T15:58:34.529Z,82.47
2019-01-19T16:01:23.785Z,82.20
2019-01-19T16:04:33.931Z,83.08
2019-01-19T16:07:57.238Z,83.35
2019-01-19T16:10:57.811Z,83.38
2019-01-19T16:14:10.485Z,83.58
2019-01-19T16:17:01.767Z,83.68
2019-01-19T16:20:16.324Z,82.98
2019-01-19T16:23:15.466Z,83.15
2019-01-19T16:26:15.686Z,83.80
2019-01-19T16:29:29.132Z,83.66
2019-01-19T16:32:47.708Z,83.48
2019-01-19T16:36:13.206Z,83.83
2019-01-19T16:39:14.252Z,83.96
2019-01-19T16:42:30.581Z,83.67
2019-01-19T16:45:57.057Z,83.84
2019-01-19T16:48:41.573Z,83.75
2019-01-19T16:51:57.121Z,83.75
2019-01-19T16:55:10.076Z,83.69
2019-01-19T16:58:14.656Z,83.89
2019-01-19T17:01:21.128Z,84.06
2019-01-19T17:04:26.327Z,83.62
2019-01-19T17:07:26.438Z,83.86
2019-01-19T17:10:42.209Z,83.56
2019-01-19T17:13:43.515Z,83.11
2019-01-19T17:16:32.518Z,83.13
2019-01-19T17:19:30.866Z,83.52
2019-01-19T17:22:20.482Z,83.59
2019-01-19T17:25:15.703Z,83.63
2019-01-19T17:27:57.716Z,83.56
2019-01-19T17:30:57.622Z,83.66
2019-01-19T17:33:59.180Z,83.70
2019-01-19T17:37:24.154Z,83.51
2019-01-19T17:40:29.612Z,83.81
2019-01-19T17:43:22.811Z,83.66
2019-01-19T17:46:57.361Z,83.70
2019-01-19T17:50:18.298Z,84.39
2019-01-19T17:53:18.565Z,83.92
2019-01-19T17:56:16.122Z,83.56
2019-01-19T17:59:21.058Z,83.86
2019-01-19T18:02:07.254Z,83.74
2019-01-19T18:04:53.470Z,83.69
2019-01-19T18:07:50.306Z,83.64
2019-01-19T18:10:49.614Z,83.73
2019-01-19T18:13:54.311Z,83.92
2019-01-19T18:17:06.854Z,83.66
2019-01-19T18:19:45.226Z,83.67
2019-01-19T18:22:36.154Z,83.95
2019-01-19T18:25:18.236Z,84.04
2019-01-19T18:29:01.414Z,84.06
2019-01-19T18:32:08.740Z,84.37
2019-01-19T18:35:00.720Z,83.89
2019-01-19T18:37:54.145Z,84.25
2019-01-19T18:40:59.063Z,83.62
2019-01-19T18:43:58.364Z,83.72
2019-01-19T18:46:44.894Z,83.64
2019-01-19T18:49:40.917Z,83.57
2019-01-19T18:52:46.458Z,83.83
2019-01-19T18:55:38.218Z,84.20
2019-01-19T18:58:43.336Z,84.04
2019-01-19T19:01:35.007Z,84.28
2019-01-19T19:04:33.496Z,84.01
2019-01-19T19:07:18.374Z,83.84
2019-01-19T19:10:31.198Z,83.83
2019-01-19T19:13:31.211Z,83.34
2019-01-19T19:16:42.726Z,83.85
2019-01-19T19:19:18.987Z,83.77
2019-01-19T19:22:01.600Z,83.41
2019-01-19T19:25:15.886Z,83.59
2019-01-19T19:28:16.055Z,83.58
2019-01-19T19:31:23.211Z,83.54
2019-01-19T19:34:29.288Z,83.92
2019-01-19T19:37:39.625Z,83.82
2019-01-19T19:40:27.931Z,84.05
2019-01-19T19:43:43.661Z,84.03
2019-01-19T19:46:53.113Z,84.24
2019-01-19T19:49:39.262Z,83.90
2019-01-19T19:52:14.101Z,83.80
2019-01-19T19:54:51.842Z,83.66
2019-01-19T19:57:21.392Z,84.58
2019-01-19T19:59:51.165Z,84.41
2019-01-19T20:02:20.294Z,84.35
2019-01-19T20:04:49.223Z,84.18
2019-01-19T20:07:21.383Z,84.39
2019-01-19T20:09:50.387Z,84.53
2019-01-19T20:12:19.343Z,84.43
2019-01-19T20:14:48.283Z,83.97
2019-01-19T20:17:17.056Z,84.64
2019-01-19T20:19:45.937Z,84.40
2019-01-19T20:22:35.553Z,84.69
2019-01-19T20:25:04.976Z,84.64
2019-01-19T20:27:34.081Z,83.89
2019-01-19T20:30:03.976Z,84.31
2019-01-19T20:32:32.824Z,84.30
2019-01-19T20:35:02.478Z,84.12
2019-01-19T20:37:31.341Z,84.22
2019-01-19T20:40:00.185Z,84.37
2019-01-19T20:42:29.274Z,84.57
2019-01-19T20:44:58.205Z,84.26
2019-01-19T20:47:27.513Z,83.96
2019-01-19T20:49:56.681Z,83.91
2019-01-19T20:52:25.835Z,84.38
2019-01-19T20:54:55.080Z,84.45
2019-01-19T20:57:24.912Z,83.80
2019-01-19T20:59:54.320Z,84.13
2019-01-19T21:02:23.118Z,84.46
2019-01-19T21:04:52.463Z,84.53
2019-01-19T21:07:21.650Z,84.63
2019-01-19T21:09:52.930Z,84.86
2019-01-19T21:12:21.827Z,85.06
2019-01-19T21:14:51.105Z,84.98
2019-01-19T21:17:21.086Z,84.74
2019-01-19T21:19:50.331Z,84.59
2019-01-19T21:22:19.268Z,84.52
2019-01-19T21:24:48.108Z,84.30
2019-01-19T21:27:16.889Z,84.71
2019-01-19T21:29:45.826Z,84.29
2019-01-19T21:32:14.890Z,84.38
2019-01-19T21:34:43.766Z,84.45
2019-01-19T21:37:13.031Z,84.01
2019-01-19T21:39:42.512Z,83.78
2019-01-19T21:42:11.407Z,84.13
2019-01-19T21:44:40.285Z,83.70
2019-01-19T21:47:09.076Z,84.09
2019-01-19T21:49:38.661Z,84.16
2019-01-19T21:52:07.659Z,84.28
2019-01-19T21:54:36.551Z,84.22
2019-01-19T21:57:05.603Z,84.09
2019-01-19T21:59:47.869Z,84.29
2019-01-19T22:02:17.083Z,84.65
2019-01-19T22:04:50.188Z,84.74
2019-01-19T22:07:38.692Z,84.06
2019-01-19T22:10:11.709Z,84.08
2019-01-19T22:12:41.217Z,83.88
2019-01-19T22:15:15.947Z,84.02
2019-01-19T22:17:44.924Z,84.34
2019-01-19T22:20:27.680Z,84.46
2019-01-19T22:22:56.877Z,84.33
2019-01-19T22:28:32.932Z,83.82
2019-01-19T22:31:01.716Z,83.44
2019-01-19T22:33:30.870Z,83.62
2019-01-19T22:36:02.885Z,83.78
2019-01-19T22:38:45.631Z,83.31
2019-01-19T22:41:14.921Z,83.25
2019-01-19T22:43:43.742Z,84.01
2019-01-19T22:46:12.639Z,83.57
2019-01-19T22:48:41.523Z,83.63
2019-01-19T22:51:11.445Z,83.91
2019-01-19T22:53:40.615Z,83.88
2019-01-19T22:56:09.697Z,83.80
2019-01-19T22:58:38.572Z,84.16
2019-01-19T23:01:21.305Z,83.94
2019-01-19T23:03:50.077Z,83.87
2019-01-19T23:06:18.984Z,83.48
2019-01-19T23:08:48.107Z,83.47
2019-01-19T23:11:17.222Z,83.59
2019-01-19T23:13:46.200Z,83.69
2019-01-19T23:16:37.860Z,84.10
2019-01-19T23:19:18.883Z,84.67
2019-01-19T23:21:49.515Z,84.58
2019-01-19T23:24:18.689Z,84.65
2019-01-19T23:26:52.427Z,84.60
2019-01-19T23:29:21.331Z,84.69
2019-01-19T23:31:50.377Z,84.36
2019-01-19T23:34:23.212Z,84.60
2019-01-19T23:39:54.847Z,83.85
2019-01-19T23:42:23.872Z,83.93
2019-01-19T23:44:52.752Z,83.68
2019-01-19T23:47:21.783Z,83.78
2019-01-19T23:49:51.090Z,83.79
2019-01-19T23:52:20.167Z,83.80
2019-01-19T23:54:48.922Z,83.95
2019-01-19T23:57:17.880Z,83.98
2019-01-19T23:59:46.897Z,84.33
